createdAt,value
2022-12-14T05:12:16.032Z,-4.13
2022-12-14T05:15:23.939Z,-4.14
2022-12-14T05:18:26.698Z,-4.12
2022-12-14T05:21:47.766Z,-4.03
2022-12-14T05:24:50.183Z,-4.01
2022-12-14T05:27:53.141Z,-3.98
2022-12-14T05:30:55.748Z,-3.92
2022-12-14T05:33:58.634Z,-3.88
2022-12-14T05:37:01.384Z,-3.87
2022-12-14T05:40:05.586Z,-3.74
2022-12-14T05:43:11.644Z,-3.73
2022-12-14T05:46:14.555Z,-3.82
2022-12-14T05:49:17.071Z,-3.81
2022-12-14T05:52:20.400Z,-3.73
2022-12-14T05:55:23.017Z,-3.74
2022-12-14T05:58:25.841Z,-3.72
2022-12-14T06:01:28.565Z,-3.82
2022-12-14T06:04:31.396Z,-3.59
2022-12-14T06:07:33.907Z,-3.74
2022-12-14T06:10:36.921Z,-3.76
2022-12-14T06:13:40.853Z,-3.86
2022-12-14T06:16:45.555Z,-3.71
2022-12-14T06:19:49.805Z,-3.65
2022-12-14T06:22:55.086Z,-3.72
2022-12-14T06:25:57.563Z,-3.74
2022-12-14T06:29:00.535Z,-3.59
2022-12-14T06:32:03.107Z,-3.48
2022-12-14T06:35:06.587Z,-3.67
2022-12-14T06:38:09.090Z,-3.63
2022-12-14T06:41:12.042Z,-3.64
2022-12-14T06:44:15.341Z,-3.71
2022-12-14T06:47:18.461Z,-3.66
2022-12-14T06:50:21.835Z,-3.61
2022-12-14T06:53:25.117Z,-3.66
2022-12-14T06:56:28.252Z,-3.60
2022-12-14T06:59:31.035Z,-3.55
2022-12-14T07:02:34.106Z,-3.50
2022-12-14T07:05:59.826Z,-3.50
2022-12-14T07:09:04.879Z,-3.34
2022-12-14T07:12:07.823Z,-3.50
2022-12-14T07:15:10.859Z,-3.41
2022-12-14T07:18:13.844Z,-3.39
2022-12-14T07:21:18.127Z,-3.24
2022-12-14T07:24:21.093Z,-3.34
2022-12-14T07:27:24.762Z,-3.44
2022-12-14T07:30:27.572Z,-3.43
2022-12-14T07:33:30.697Z,-3.35
2022-12-14T07:36:34.213Z,-3.39
2022-12-14T07:39:36.704Z,-3.32
2022-12-14T07:42:41.293Z,-3.25
2022-12-14T07:45:45.363Z,-3.28
2022-12-14T07:48:51.284Z,-3.18
2022-12-14T07:51:53.919Z,-3.15
2022-12-14T07:54:56.668Z,-3.27
2022-12-14T07:57:59.248Z,-3.20
2022-12-14T08:01:35.682Z,-3.22
2022-12-14T08:04:38.732Z,-3.17
2022-12-14T08:07:41.279Z,-3.01
2022-12-14T08:10:48.507Z,-3.05
2022-12-14T08:14:02.906Z,-2.96
2022-12-14T08:17:05.883Z,-2.94
2022-12-14T08:20:09.140Z,-2.97
2022-12-14T08:23:12.034Z,-3.00
2022-12-14T08:26:15.155Z,-2.93
2022-12-14T08:29:18.520Z,-2.86
2022-12-14T08:32:21.405Z,-2.81
2022-12-14T08:35:24.302Z,-2.69
2022-12-14T08:38:27.274Z,-2.82
2022-12-14T08:41:30.480Z,-2.67
2022-12-14T08:44:32.994Z,-2.75
2022-12-14T08:47:35.711Z,-2.60
2022-12-14T08:50:38.977Z,-2.74
2022-12-14T08:57:39.951Z,-2.78
2022-12-14T09:00:43.486Z,-2.74
2022-12-14T09:03:47.057Z,-2.66
2022-12-14T09:06:49.960Z,-2.65
2022-12-14T09:09:52.422Z,-2.73
2022-12-14T09:12:55.306Z,-2.69
2022-12-14T09:16:00.629Z,-2.86
2022-12-14T09:19:03.575Z,-2.64
2022-12-14T09:22:06.224Z,-2.65
2022-12-14T09:25:09.486Z,-2.66
2022-12-14T09:28:11.990Z,-2.60
2022-12-14T09:31:17.531Z,-2.57
2022-12-14T09:34:20.000Z,-2.62
2022-12-14T09:37:22.710Z,-2.62
2022-12-14T09:40:31.536Z,-2.51
2022-12-14T09:43:40.646Z,-2.45
2022-12-14T09:46:58.489Z,-2.45
2022-12-14T09:50:17.642Z,-2.39
2022-12-14T09:53:21.893Z,-2.26
2022-12-14T09:56:24.937Z,-2.22
2022-12-14T09:59:30.428Z,-2.09
2022-12-14T10:03:19.656Z,-2.26
2022-12-14T10:07:06.435Z,-2.38
2022-12-14T10:10:24.186Z,-2.34
2022-12-14T10:13:27.231Z,-2.24
2022-12-14T10:16:43.098Z,-2.12
2022-12-14T10:19:57.947Z,-1.99
2022-12-14T10:23:02.194Z,-1.99
2022-12-14T10:26:12.857Z,-2.10
2022-12-14T10:29:22.102Z,-1.92
2022-12-14T10:32:32.399Z,-1.90
2022-12-14T10:35:50.801Z,-2.01
2022-12-14T10:39:21.885Z,-2.04
2022-12-14T10:42:58.247Z,-1.88
2022-12-14T10:46:19.772Z,-1.84
2022-12-14T10:49:36.554Z,-1.85
2022-12-14T10:52:42.895Z,-1.82
2022-12-14T10:55:46.817Z,-1.77
2022-12-14T10:59:40.743Z,-1.89
2022-12-14T11:02:54.939Z,-1.86
2022-12-14T11:06:11.047Z,-1.94
2022-12-14T11:09:21.723Z,-1.88
2022-12-14T11:12:27.201Z,-1.96
2022-12-14T11:15:40.305Z,-1.91
2022-12-14T11:18:43.212Z,-1.90
2022-12-14T11:21:46.559Z,-1.90
2022-12-14T11:24:52.828Z,-1.84
2022-12-14T11:27:56.025Z,-1.76
2022-12-14T11:31:21.051Z,-1.88
2022-12-14T11:34:42.563Z,-1.99
2022-12-14T11:37:49.892Z,-1.94
2022-12-14T11:40:52.432Z,-1.88
2022-12-14T11:44:15.553Z,-1.82
2022-12-14T11:47:29.260Z,-1.67
2022-12-14T11:50:32.167Z,-1.61
2022-12-14T11:53:34.916Z,-1.69
2022-12-14T11:56:37.887Z,-1.70
2022-12-14T11:59:48.773Z,-1.51
2022-12-14T12:03:19.183Z,-1.43
2022-12-14T12:06:25.610Z,-1.47
2022-12-14T12:09:31.293Z,-1.79
2022-12-14T12:12:35.036Z,-1.85
2022-12-14T12:15:43.533Z,-1.79
2022-12-14T12:19:12.195Z,-1.58
2022-12-14T12:22:16.295Z,-1.75
2022-12-14T12:25:33.734Z,-1.78
2022-12-14T12:28:43.776Z,-1.81
2022-12-14T12:32:01.599Z,-1.82
2022-12-14T12:35:18.636Z,-1.82
2022-12-14T12:38:49.754Z,-1.74
2022-12-14T12:42:09.206Z,-1.63
2022-12-14T12:45:29.423Z,-1.62
2022-12-14T12:48:46.816Z,-1.60
2022-12-14T12:51:54.325Z,-1.66
2022-12-14T12:55:19.609Z,-1.58
2022-12-14T12:58:33.386Z,-1.70
2022-12-14T13:01:41.278Z,-1.80
2022-12-14T13:04:52.304Z,-1.73
2022-12-14T13:07:59.139Z,-1.69
2022-12-14T13:11:29.533Z,-1.70
2022-12-14T13:14:49.710Z,-1.63
2022-12-14T13:18:33.758Z,-1.69
2022-12-14T13:21:44.500Z,-1.49
2022-12-14T13:24:58.925Z,-1.46
2022-12-14T13:28:23.263Z,-1.51
2022-12-14T13:31:45.444Z,-1.61
2022-12-14T13:34:59.204Z,-1.59
2022-12-14T13:38:19.323Z,-1.60
2022-12-14T13:41:44.372Z,-1.58
2022-12-14T13:45:02.230Z,-1.56
2022-12-14T13:48:18.373Z,-1.60
2022-12-14T13:51:31.860Z,-1.68
2022-12-14T13:54:37.833Z,-1.65
2022-12-14T13:57:40.803Z,-1.73
2022-12-14T14:00:46.726Z,-1.59
2022-12-14T14:03:53.443Z,-1.70
2022-12-14T14:07:18.351Z,-1.57
2022-12-14T14:10:39.182Z,-1.65
2022-12-14T14:13:42.874Z,-1.64
2022-12-14T14:16:56.836Z,-1.74
2022-12-14T14:19:59.992Z,-1.77
2022-12-14T14:23:15.391Z,-1.91
2022-12-14T14:26:37.228Z,-1.70
2022-12-14T14:29:51.735Z,-1.93
2022-12-14T14:33:07.571Z,-1.99
2022-12-14T14:36:36.935Z,-1.90
2022-12-14T14:39:57.787Z,-1.96
2022-12-14T14:43:17.465Z,-1.94
2022-12-14T14:46:23.424Z,-1.87
2022-12-14T14:49:40.251Z,-2.10
2022-12-14T14:52:42.728Z,-2.18
2022-12-14T14:56:01.886Z,-2.08
2022-12-14T14:59:19.543Z,-2.06
2022-12-14T15:02:31.858Z,-2.21
2022-12-14T15:05:43.961Z,-2.15
2022-12-14T15:08:53.145Z,-2.15
2022-12-14T15:12:01.272Z,-2.21
2022-12-14T15:15:21.765Z,-2.19
2022-12-14T15:18:26.107Z,-2.14
2022-12-14T15:21:32.431Z,-2.21
2022-12-14T15:24:39.841Z,-2.15
2022-12-14T15:27:42.684Z,-2.06
2022-12-14T15:30:48.445Z,-2.22
2022-12-14T15:33:51.530Z,-2.21
2022-12-14T15:36:54.975Z,-2.18
2022-12-14T15:40:04.828Z,-2.21
2022-12-14T15:43:19.084Z,-2.30
2022-12-14T15:46:33.953Z,-2.17
2022-12-14T15:49:36.451Z,-2.02
2022-12-14T15:52:39.369Z,-2.18
2022-12-14T15:55:42.764Z,-2.22
2022-12-14T15:58:45.919Z,-2.24
2022-12-14T16:01:56.804Z,-2.23
2022-12-14T16:05:03.573Z,-2.20
2022-12-14T16:08:09.330Z,-2.17
2022-12-14T16:11:25.437Z,-2.26
2022-12-14T16:14:33.600Z,-2.24
2022-12-14T16:17:37.481Z,-2.26
2022-12-14T16:20:43.712Z,-2.36
2022-12-14T16:23:50.128Z,-2.24
2022-12-14T16:27:00.013Z,-2.26
2022-12-14T16:30:23.190Z,-2.28
2022-12-14T16:33:25.801Z,-2.23
2022-12-14T16:36:29.081Z,-2.23
2022-12-14T16:39:38.900Z,-2.21
2022-12-14T16:42:44.130Z,-2.29
2022-12-14T16:46:07.954Z,-2.32
2022-12-14T16:49:19.113Z,-2.37
2022-12-14T16:52:26.919Z,-2.34
2022-12-14T16:55:29.698Z,-2.40
2022-12-14T16:58:33.122Z,-2.26
2022-12-14T17:01:45.009Z,-2.17
